sensor_id;sensor_type;location;lat;lon;timestamp;P1;durP1;ratioP1;P2;durP2;ratioP2
48524;SDS011;34316;51.514;-0.178;2024-01-10T00:00:59;6.70;;;4.43;;
48524;SDS011;34316;51.514;-0.178;2024-01-10T00:03:01;8.88;;;4.72;;
48524;SDS011;34316;51.514;-0.178;2024-01-10T00:05:03;6.68;;;4.20;;
48524;SDS011;34316;51.514;-0.178;2024-01-10T00:07:05;9.95;;;4.55;;
48524;SDS011;34316;51.514;-0.178;2024-01-10T00:09:07;9.45;;;4.60;;
48524;SDS011;34316;51.514;-0.178;2024-01-10T00:11:09;6.88;;;4.00;;
48524;SDS011;34316;51.514;-0.178;2024-01-10T00:13:11;7.63;;;4.60;;
48524;SDS011;34316;51.514;-0.178;2024-01-10T00:15:13;9.20;;;4.40;;
48524;SDS011;34316;51.514;-0.178;2024-01-10T00:17:15;9.27;;;4.38;;
48524;SDS011;34316;51.514;-0.178;2024-01-10T00:19:17;7.97;;;4.82;;
48524;SDS011;34316;51.514;-0.178;2024-01-10T00:21:19;8.15;;;4.72;;
48524;SDS011;34316;51.514;-0.178;2024-01-10T00:23:22;7.22;;;4.65;;
48524;SDS011;34316;51.514;-0.178;2024-01-10T00:25:24;7.25;;;4.50;;
48524;SDS011;34316;51.514;-0.178;2024-01-10T00:27:26;8.63;;;5.97;;
48524;SDS011;34316;51.514;-0.178;2024-01-10T00:29:28;8.55;;;5.53;;
48524;SDS011;34316;51.514;-0.178;2024-01-10T00:31:30;8.07;;;5.05;;
48524;SDS011;34316;51.514;-0.178;2024-01-10T00:33:32;7.25;;;4.75;;
48524;SDS011;34316;51.514;-0.178;2024-01-10T00:35:34;6.55;;;5.03;;
48524;SDS011;34316;51.514;-0.178;2024-01-10T00:37:36;6.88;;;4.65;;
48524;SDS011;34316;51.514;-0.178;2024-01-10T00:39:38;9.50;;;5.22;;
48524;SDS011;34316;51.514;-0.178;2024-01-10T00:41:40;7.85;;;5.88;;
48524;SDS011;34316;51.514;-0.178;2024-01-10T00:43:42;8.30;;;5.85;;
48524;SDS011;34316;51.514;-0.178;2024-01-10T00:45:44;9.32;;;6.07;;
48524;SDS011;34316;51.514;-0.178;2024-01-10T00:47:49;7.80;;;5.55;;
48524;SDS011;34316;51.514;-0.178;2024-01-10T00:49:51;6.07;;;4.20;;
48524;SDS011;34316;51.514;-0.178;2024-01-10T00:51:53;7.60;;;4.55;;
48524;SDS011;34316;51.514;-0.178;2024-01-10T00:53:55;6.40;;;4.38;;
48524;SDS011;34316;51.514;-0.178;2024-01-10T00:55:57;7.82;;;5.10;;
48524;SDS011;34316;51.514;-0.178;2024-01-10T00:57:59;5.65;;;4.22;;
48524;SDS011;34316;51.514;-0.178;2024-01-10T01:00:01;7.05;;;4.78;;
48524;SDS011;34316;51.514;-0.178;2024-01-10T01:02:04;6.82;;;4.72;;
48524;SDS011;34316;51.514;-0.178;2024-01-10T01:04:06;7.88;;;5.63;;
48524;SDS011;34316;51.514;-0.178;2024-01-10T01:06:08;7.88;;;5.70;;
48524;SDS011;34316;51.514;-0.178;2024-01-10T01:08:10;6.95;;;5.60;;
48524;SDS011;34316;51.514;-0.178;2024-01-10T01:10:12;8.50;;;6.18;;
48524;SDS011;34316;51.514;-0.178;2024-01-10T01:12:14;8.50;;;6.00;;
48524;SDS011;34316;51.514;-0.178;2024-01-10T01:14:16;8.32;;;6.60;;
48524;SDS011;34316;51.514;-0.178;2024-01-10T01:16:18;7.78;;;5.65;;
48524;SDS011;34316;51.514;-0.178;2024-01-10T01:18:20;8.45;;;5.78;;
48524;SDS011;34316;51.514;-0.178;2024-01-10T01:20:22;10.80;;;5.70;;
48524;SDS011;34316;51.514;-0.178;2024-01-10T01:22:24;7.78;;;6.13;;
48524;SDS011;34316;51.514;-0.178;2024-01-10T01:24:26;8.38;;;5.90;;
48524;SDS011;34316;51.514;-0.178;2024-01-10T01:26:28;7.38;;;5.75;;
48524;SDS011;34316;51.514;-0.178;2024-01-10T01:28:29;9.07;;;5.70;;
48524;SDS011;34316;51.514;-0.178;2024-01-10T01:30:31;9.45;;;5.85;;
48524;SDS011;34316;51.514;-0.178;2024-01-10T01:32:33;8.50;;;5.82;;
48524;SDS011;34316;51.514;-0.178;2024-01-10T01:34:35;7.00;;;5.15;;
48524;SDS011;34316;51.514;-0.178;2024-01-10T01:36:36;9.23;;;5.80;;
48524;SDS011;34316;51.514;-0.178;2024-01-10T01:38:38;8.02;;;5.38;;
48524;SDS011;34316;51.514;-0.178;2024-01-10T01:40:40;6.65;;;5.13;;
48524;SDS011;34316;51.514;-0.178;2024-01-10T01:42:43;8.38;;;5.25;;
48524;SDS011;34316;51.514;-0.178;2024-01-10T01:44:46;8.25;;;6.00;;
48524;SDS011;34316;51.514;-0.178;2024-01-10T01:46:48;9.00;;;5.90;;
48524;SDS011;34316;51.514;-0.178;2024-01-10T01:48:50;8.13;;;5.65;;
48524;SDS011;34316;51.514;-0.178;2024-01-10T01:50:55;8.50;;;5.95;;
48524;SDS011;34316;51.514;-0.178;2024-01-10T01:52:59;7.40;;;5.03;;
48524;SDS011;34316;51.514;-0.178;2024-01-10T01:55:01;8.50;;;5.22;;
48524;SDS011;34316;51.514;-0.178;2024-01-10T01:57:03;7.45;;;5.40;;
48524;SDS011;34316;51.514;-0.178;2024-01-10T01:59:06;7.07;;;5.05;;
48524;SDS011;34316;51.514;-0.178;2024-01-10T02:01:08;9.65;;;5.07;;
48524;SDS011;34316;51.514;-0.178;2024-01-10T02:03:12;8.88;;;6.00;;
48524;SDS011;34316;51.514;-0.178;2024-01-10T02:05:15;8.65;;;5.55;;
48524;SDS011;34316;51.514;-0.178;2024-01-10T02:07:17;8.07;;;5.80;;
48524;SDS011;34316;51.514;-0.178;2024-01-10T02:09:19;8.68;;;5.75;;
48524;SDS011;34316;51.514;-0.178;2024-01-10T02:11:21;8.52;;;5.60;;
48524;SDS011;34316;51.514;-0.178;2024-01-10T02:13:23;10.13;;;5.95;;
48524;SDS011;34316;51.514;-0.178;2024-01-10T02:15:25;12.40;;;6.35;;
48524;SDS011;34316;51.514;-0.178;2024-01-10T02:17:27;9.98;;;6.18;;
48524;SDS011;34316;51.514;-0.178;2024-01-10T02:19:29;10.57;;;5.43;;
48524;SDS011;34316;51.514;-0.178;2024-01-10T02:21:33;7.90;;;5.10;;
48524;SDS011;34316;51.514;-0.178;2024-01-10T02:23:35;8.27;;;5.30;;
48524;SDS011;34316;51.514;-0.178;2024-01-10T02:25:37;8.35;;;5.15;;
48524;SDS011;34316;51.514;-0.178;2024-01-10T02:27:40;12.57;;;6.37;;
48524;SDS011;34316;51.514;-0.178;2024-01-10T02:29:42;7.57;;;5.10;;
48524;SDS011;34316;51.514;-0.178;2024-01-10T02:31:44;8.60;;;5.22;;
48524;SDS011;34316;51.514;-0.178;2024-01-10T02:33:46;8.90;;;5.30;;
48524;SDS011;34316;51.514;-0.178;2024-01-10T02:35:48;8.60;;;5.10;;
48524;SDS011;34316;51.514;-0.178;2024-01-10T02:37:50;9.57;;;5.70;;
48524;SDS011;34316;51.514;-0.178;2024-01-10T02:39:53;8.20;;;5.93;;
48524;SDS011;34316;51.514;-0.178;2024-01-10T02:41:54;9.18;;;5.43;;
48524;SDS011;34316;51.514;-0.178;2024-01-10T02:43:56;7.70;;;5.03;;
48524;SDS011;34316;51.514;-0.178;2024-01-10T02:46:00;8.55;;;5.13;;
48524;SDS011;34316;51.514;-0.178;2024-01-10T02:48:02;6.80;;;4.50;;
48524;SDS011;34316;51.514;-0.178;2024-01-10T02:50:05;9.57;;;5.15;;
48524;SDS011;34316;51.514;-0.178;2024-01-10T02:52:07;10.25;;;4.57;;
48524;SDS011;34316;51.514;-0.178;2024-01-10T02:54:09;8.52;;;4.55;;
48524;SDS011;34316;51.514;-0.178;2024-01-10T02:56:14;6.60;;;4.32;;
48524;SDS011;34316;51.514;-0.178;2024-01-10T02:58:16;6.65;;;4.53;;
48524;SDS011;34316;51.514;-0.178;2024-01-10T03:00:19;6.93;;;4.13;;
48524;SDS011;34316;51.514;-0.178;2024-01-10T03:02:20;9.88;;;4.47;;
48524;SDS011;34316;51.514;-0.178;2024-01-10T03:04:25;6.40;;;4.45;;
48524;SDS011;34316;51.514;-0.178;2024-01-10T03:06:27;8.77;;;4.95;;
48524;SDS011;34316;51.514;-0.178;2024-01-10T03:08:28;7.93;;;4.70;;
48524;SDS011;34316;51.514;-0.178;2024-01-10T03:10:30;5.95;;;4.50;;
48524;SDS011;34316;51.514;-0.178;2024-01-10T03:12:32;8.18;;;4.68;;
48524;SDS011;34316;51.514;-0.178;2024-01-10T03:14:38;7.22;;;4.55;;
48524;SDS011;34316;51.514;-0.178;2024-01-10T03:16:40;8.43;;;4.50;;
48524;SDS011;34316;51.514;-0.178;2024-01-10T03:18:42;7.50;;;4.68;;
48524;SDS011;34316;51.514;-0.178;2024-01-10T03:20:43;7.72;;;4.63;;
48524;SDS011;34316;51.514;-0.178;2024-01-10T03:22:45;7.32;;;4.50;;
48524;SDS011;34316;51.514;-0.178;2024-01-10T03:24:47;7.68;;;4.85;;
48524;SDS011;34316;51.514;-0.178;2024-01-10T03:26:49;7.68;;;4.70;;
48524;SDS011;34316;51.514;-0.178;2024-01-10T03:28:51;6.88;;;4.80;;
48524;SDS011;34316;51.514;-0.178;2024-01-10T03:30:53;9.13;;;4.35;;
48524;SDS011;34316;51.514;-0.178;2024-01-10T03:32:55;6.10;;;4.35;;
48524;SDS011;34316;51.514;-0.178;2024-01-10T03:34:57;6.80;;;4.68;;
48524;SDS011;34316;51.514;-0.178;2024-01-10T03:36:59;6.82;;;4.57;;
48524;SDS011;34316;51.514;-0.178;2024-01-10T03:39:01;9.32;;;4.30;;
48524;SDS011;34316;51.514;-0.178;2024-01-10T03:41:03;8.20;;;4.88;;
48524;SDS011;34316;51.514;-0.178;2024-01-10T03:43:05;7.75;;;5.05;;
48524;SDS011;34316;51.514;-0.178;2024-01-10T03:45:07;8.73;;;4.55;;
48524;SDS011;34316;51.514;-0.178;2024-01-10T03:47:10;6.88;;;4.60;;
48524;SDS011;34316;51.514;-0.178;2024-01-10T03:49:12;7.10;;;4.78;;
48524;SDS011;34316;51.514;-0.178;2024-01-10T03:51:15;6.97;;;4.43;;
48524;SDS011;34316;51.514;-0.178;2024-01-10T03:53:17;7.00;;;4.85;;
48524;SDS011;34316;51.514;-0.178;2024-01-10T03:55:19;8.45;;;4.55;;
48524;SDS011;34316;51.514;-0.178;2024-01-10T03:57:21;9.60;;;6.28;;
48524;SDS011;34316;51.514;-0.178;2024-01-10T03:59:23;10.68;;;6.68;;
48524;SDS011;34316;51.514;-0.178;2024-01-10T04:01:25;9.73;;;5.03;;
48524;SDS011;34316;51.514;-0.178;2024-01-10T04:03:27;8.48;;;4.80;;
48524;SDS011;34316;51.514;-0.178;2024-01-10T04:05:29;7.70;;;4.70;;
48524;SDS011;34316;51.514;-0.178;2024-01-10T04:07:31;6.38;;;4.40;;
48524;SDS011;34316;51.514;-0.178;2024-01-10T04:09:33;9.07;;;5.22;;
48524;SDS011;34316;51.514;-0.178;2024-01-10T04:11:35;12.70;;;6.95;;
48524;SDS011;34316;51.514;-0.178;2024-01-10T04:13:37;8.98;;;5.70;;
48524;SDS011;34316;51.514;-0.178;2024-01-10T04:15:39;12.30;;;5.55;;
48524;SDS011;34316;51.514;-0.178;2024-01-10T04:17:41;13.75;;;6.40;;
48524;SDS011;34316;51.514;-0.178;2024-01-10T04:19:43;11.07;;;5.63;;
48524;SDS011;34316;51.514;-0.178;2024-01-10T04:21:45;11.60;;;5.20;;
48524;SDS011;34316;51.514;-0.178;2024-01-10T04:23:46;10.85;;;5.30;;
48524;SDS011;34316;51.514;-0.178;2024-01-10T04:25:48;8.63;;;4.90;;
48524;SDS011;34316;51.514;-0.178;2024-01-10T04:27:51;6.43;;;4.30;;
48524;SDS011;34316;51.514;-0.178;2024-01-10T04:29:53;7.67;;;5.27;;
48524;SDS011;34316;51.514;-0.178;2024-01-10T04:31:55;6.72;;;4.20;;
48524;SDS011;34316;51.514;-0.178;2024-01-10T04:33:57;9.35;;;4.32;;
48524;SDS011;34316;51.514;-0.178;2024-01-10T04:35:59;7.93;;;4.50;;
48524;SDS011;34316;51.514;-0.178;2024-01-10T04:38:01;6.53;;;4.05;;
48524;SDS011;34316;51.514;-0.178;2024-01-10T04:40:04;5.63;;;4.15;;
48524;SDS011;34316;51.514;-0.178;2024-01-10T04:42:12;8.30;;;4.15;;
48524;SDS011;34316;51.514;-0.178;2024-01-10T04:44:14;6.55;;;4.28;;
48524;SDS011;34316;51.514;-0.178;2024-01-10T04:46:16;7.68;;;4.60;;
48524;SDS011;34316;51.514;-0.178;2024-01-10T04:48:18;10.38;;;5.30;;
48524;SDS011;34316;51.514;-0.178;2024-01-10T04:50:20;11.52;;;5.35;;
48524;SDS011;34316;51.514;-0.178;2024-01-10T04:52:22;8.55;;;5.20;;
48524;SDS011;34316;51.514;-0.178;2024-01-10T04:54:24;8.57;;;5.20;;
48524;SDS011;34316;51.514;-0.178;2024-01-10T04:56:25;11.85;;;5.18;;
48524;SDS011;34316;51.514;-0.178;2024-01-10T04:58:27;8.82;;;4.72;;
48524;SDS011;34316;51.514;-0.178;2024-01-10T05:00:31;10.18;;;5.00;;
48524;SDS011;34316;51.514;-0.178;2024-01-10T05:02:33;7.65;;;4.60;;
48524;SDS011;34316;51.514;-0.178;2024-01-10T05:04:35;6.78;;;4.25;;
48524;SDS011;34316;51.514;-0.178;2024-01-10T05:06:37;9.65;;;4.32;;
48524;SDS011;34316;51.514;-0.178;2024-01-10T05:08:39;11.20;;;5.15;;
48524;SDS011;34316;51.514;-0.178;2024-01-10T05:10:41;9.10;;;5.28;;
48524;SDS011;34316;51.514;-0.178;2024-01-10T05:12:43;6.10;;;3.92;;
48524;SDS011;34316;51.514;-0.178;2024-01-10T05:14:45;7.10;;;4.10;;
48524;SDS011;34316;51.514;-0.178;2024-01-10T05:16:46;6.25;;;4.95;;
48524;SDS011;34316;51.514;-0.178;2024-01-10T05:18:51;8.65;;;5.88;;
48524;SDS011;34316;51.514;-0.178;2024-01-10T05:20:53;12.75;;;6.20;;
48524;SDS011;34316;51.514;-0.178;2024-01-10T05:22:55;9.90;;;6.30;;
48524;SDS011;34316;51.514;-0.178;2024-01-10T05:25:00;9.05;;;5.90;;
48524;SDS011;34316;51.514;-0.178;2024-01-10T05:27:02;10.60;;;6.30;;
48524;SDS011;34316;51.514;-0.178;2024-01-10T05:29:04;10.02;;;6.25;;
48524;SDS011;34316;51.514;-0.178;2024-01-10T05:31:06;14.95;;;6.78;;
48524;SDS011;34316;51.514;-0.178;2024-01-10T05:33:08;11.75;;;6.78;;
48524;SDS011;34316;51.514;-0.178;2024-01-10T05:35:10;8.73;;;5.10;;
48524;SDS011;34316;51.514;-0.178;2024-01-10T05:37:12;11.07;;;5.82;;
48524;SDS011;34316;51.514;-0.178;2024-01-10T05:39:14;7.57;;;4.28;;
48524;SDS011;34316;51.514;-0.178;2024-01-10T05:41:17;9.63;;;5.00;;
48524;SDS011;34316;51.514;-0.178;2024-01-10T05:43:19;8.15;;;4.47;;
48524;SDS011;34316;51.514;-0.178;2024-01-10T05:45:21;11.05;;;5.13;;
48524;SDS011;34316;51.514;-0.178;2024-01-10T05:47:23;8.35;;;5.00;;
48524;SDS011;34316;51.514;-0.178;2024-01-10T05:49:26;8.85;;;5.65;;
48524;SDS011;34316;51.514;-0.178;2024-01-10T05:51:28;9.23;;;5.47;;
48524;SDS011;34316;51.514;-0.178;2024-01-10T05:53:30;10.18;;;5.97;;
48524;SDS011;34316;51.514;-0.178;2024-01-10T05:55:32;10.77;;;6.50;;
48524;SDS011;34316;51.514;-0.178;2024-01-10T05:57:34;12.63;;;7.15;;
48524;SDS011;34316;51.514;-0.178;2024-01-10T05:59:37;10.48;;;7.18;;
48524;SDS011;34316;51.514;-0.178;2024-01-10T06:01:39;10.70;;;6.38;;
48524;SDS011;34316;51.514;-0.178;2024-01-10T06:03:41;13.88;;;7.35;;
48524;SDS011;34316;51.514;-0.178;2024-01-10T06:05:43;10.23;;;6.70;;
48524;SDS011;34316;51.514;-0.178;2024-01-10T06:07:45;9.77;;;6.60;;
48524;SDS011;34316;51.514;-0.178;2024-01-10T06:09:47;14.25;;;7.05;;
48524;SDS011;34316;51.514;-0.178;2024-01-10T06:11:49;13.00;;;7.65;;
48524;SDS011;34316;51.514;-0.178;2024-01-10T06:13:51;11.20;;;7.07;;
48524;SDS011;34316;51.514;-0.178;2024-01-10T06:15:57;14.52;;;7.13;;
48524;SDS011;34316;51.514;-0.178;2024-01-10T06:17:59;12.60;;;6.97;;
48524;SDS011;34316;51.514;-0.178;2024-01-10T06:20:02;13.88;;;7.32;;
48524;SDS011;34316;51.514;-0.178;2024-01-10T06:22:05;14.88;;;6.70;;
48524;SDS011;34316;51.514;-0.178;2024-01-10T06:24:07;17.52;;;7.68;;
48524;SDS011;34316;51.514;-0.178;2024-01-10T06:26:09;12.27;;;7.10;;
48524;SDS011;34316;51.514;-0.178;2024-01-10T06:28:12;15.65;;;5.97;;
48524;SDS011;34316;51.514;-0.178;2024-01-10T06:30:14;16.17;;;7.28;;
48524;SDS011;34316;51.514;-0.178;2024-01-10T06:32:16;15.88;;;7.53;;
48524;SDS011;34316;51.514;-0.178;2024-01-10T06:34:18;11.32;;;6.32;;
48524;SDS011;34316;51.514;-0.178;2024-01-10T06:36:20;10.63;;;6.05;;
48524;SDS011;34316;51.514;-0.178;2024-01-10T06:38:21;10.50;;;5.88;;
48524;SDS011;34316;51.514;-0.178;2024-01-10T06:40:25;15.88;;;7.68;;
48524;SDS011;34316;51.514;-0.178;2024-01-10T06:42:27;21.77;;;11.45;;
48524;SDS011;34316;51.514;-0.178;2024-01-10T06:44:29;21.13;;;12.63;;
48524;SDS011;34316;51.514;-0.178;2024-01-10T06:46:31;22.60;;;12.88;;
48524;SDS011;34316;51.514;-0.178;2024-01-10T06:48:33;30.08;;;17.80;;
48524;SDS011;34316;51.514;-0.178;2024-01-10T06:52:40;29.63;;;18.98;;
48524;SDS011;34316;51.514;-0.178;2024-01-10T06:54:41;23.10;;;13.80;;
48524;SDS011;34316;51.514;-0.178;2024-01-10T06:56:43;15.63;;;10.70;;
48524;SDS011;34316;51.514;-0.178;2024-01-10T06:58:48;17.38;;;10.55;;
48524;SDS011;34316;51.514;-0.178;2024-01-10T07:00:50;18.77;;;11.40;;
48524;SDS011;34316;51.514;-0.178;2024-01-10T07:02:52;12.82;;;8.00;;
48524;SDS011;34316;51.514;-0.178;2024-01-10T07:04:54;16.75;;;7.88;;
48524;SDS011;34316;51.514;-0.178;2024-01-10T07:06:56;13.30;;;7.93;;
48524;SDS011;34316;51.514;-0.178;2024-01-10T07:08:58;15.55;;;8.55;;
48524;SDS011;34316;51.514;-0.178;2024-01-10T07:11:00;18.67;;;8.60;;
48524;SDS011;34316;51.514;-0.178;2024-01-10T07:13:02;15.15;;;7.85;;
48524;SDS011;34316;51.514;-0.178;2024-01-10T07:15:05;16.02;;;10.23;;
48524;SDS011;34316;51.514;-0.178;2024-01-10T07:17:08;14.00;;;7.90;;
48524;SDS011;34316;51.514;-0.178;2024-01-10T07:19:10;10.85;;;7.00;;
48524;SDS011;34316;51.514;-0.178;2024-01-10T07:21:15;13.18;;;6.82;;
48524;SDS011;34316;51.514;-0.178;2024-01-10T07:23:16;9.32;;;5.88;;
48524;SDS011;34316;51.514;-0.178;2024-01-10T07:25:18;10.07;;;5.43;;
48524;SDS011;34316;51.514;-0.178;2024-01-10T07:27:20;17.48;;;7.88;;
48524;SDS011;34316;51.514;-0.178;2024-01-10T07:29:22;9.05;;;5.32;;
48524;SDS011;34316;51.514;-0.178;2024-01-10T07:31:24;8.40;;;5.03;;
48524;SDS011;34316;51.514;-0.178;2024-01-10T07:33:26;12.40;;;6.13;;
48524;SDS011;34316;51.514;-0.178;2024-01-10T07:35:28;8.65;;;4.93;;
48524;SDS011;34316;51.514;-0.178;2024-01-10T07:37:31;15.00;;;7.32;;
48524;SDS011;34316;51.514;-0.178;2024-01-10T07:39:34;10.15;;;5.60;;
48524;SDS011;34316;51.514;-0.178;2024-01-10T07:41:36;9.02;;;5.43;;
48524;SDS011;34316;51.514;-0.178;2024-01-10T07:43:37;10.88;;;5.90;;
48524;SDS011;34316;51.514;-0.178;2024-01-10T07:45:39;15.02;;;6.25;;
48524;SDS011;34316;51.514;-0.178;2024-01-10T07:47:41;9.23;;;4.75;;
48524;SDS011;34316;51.514;-0.178;2024-01-10T07:49:43;11.38;;;5.35;;
48524;SDS011;34316;51.514;-0.178;2024-01-10T07:51:45;10.65;;;5.28;;
48524;SDS011;34316;51.514;-0.178;2024-01-10T07:53:47;12.48;;;5.18;;
48524;SDS011;34316;51.514;-0.178;2024-01-10T07:55:49;14.77;;;5.05;;
48524;SDS011;34316;51.514;-0.178;2024-01-10T07:59:54;9.90;;;4.72;;
48524;SDS011;34316;51.514;-0.178;2024-01-10T08:01:57;8.02;;;4.53;;
48524;SDS011;34316;51.514;-0.178;2024-01-10T08:04:00;8.80;;;4.45;;
48524;SDS011;34316;51.514;-0.178;2024-01-10T08:06:02;11.13;;;5.03;;
48524;SDS011;34316;51.514;-0.178;2024-01-10T08:08:04;9.05;;;5.07;;
48524;SDS011;34316;51.514;-0.178;2024-01-10T08:10:07;8.40;;;4.70;;
48524;SDS011;34316;51.514;-0.178;2024-01-10T08:12:14;10.57;;;5.60;;
48524;SDS011;34316;51.514;-0.178;2024-01-10T08:14:16;12.07;;;6.53;;
48524;SDS011;34316;51.514;-0.178;2024-01-10T08:16:18;11.70;;;5.90;;
48524;SDS011;34316;51.514;-0.178;2024-01-10T08:18:20;12.73;;;6.95;;
48524;SDS011;34316;51.514;-0.178;2024-01-10T08:20:22;13.50;;;7.90;;
48524;SDS011;34316;51.514;-0.178;2024-01-10T08:22:24;16.73;;;8.30;;
48524;SDS011;34316;51.514;-0.178;2024-01-10T08:24:28;33.80;;;17.27;;
48524;SDS011;34316;51.514;-0.178;2024-01-10T08:26:30;14.73;;;8.23;;
48524;SDS011;34316;51.514;-0.178;2024-01-10T08:28:33;29.83;;;12.02;;
48524;SDS011;34316;51.514;-0.178;2024-01-10T08:30:34;14.43;;;9.30;;
48524;SDS011;34316;51.514;-0.178;2024-01-10T08:32:37;13.77;;;8.10;;
48524;SDS011;34316;51.514;-0.178;2024-01-10T08:34:40;13.57;;;6.93;;
48524;SDS011;34316;51.514;-0.178;2024-01-10T08:36:42;10.20;;;6.43;;
48524;SDS011;34316;51.514;-0.178;2024-01-10T08:38:44;10.10;;;6.28;;
48524;SDS011;34316;51.514;-0.178;2024-01-10T08:40:46;15.80;;;8.20;;
48524;SDS011;34316;51.514;-0.178;2024-01-10T08:42:49;11.07;;;7.50;;
48524;SDS011;34316;51.514;-0.178;2024-01-10T08:44:51;12.45;;;7.00;;
48524;SDS011;34316;51.514;-0.178;2024-01-10T08:46:54;11.48;;;6.90;;
48524;SDS011;34316;51.514;-0.178;2024-01-10T08:48:56;14.10;;;6.75;;
48524;SDS011;34316;51.514;-0.178;2024-01-10T08:50:58;21.73;;;11.95;;
48524;SDS011;34316;51.514;-0.178;2024-01-10T08:53:00;13.43;;;7.30;;
48524;SDS011;34316;51.514;-0.178;2024-01-10T08:55:05;17.80;;;8.52;;
48524;SDS011;34316;51.514;-0.178;2024-01-10T08:57:13;13.55;;;6.85;;
48524;SDS011;34316;51.514;-0.178;2024-01-10T08:59:15;13.10;;;6.57;;
48524;SDS011;34316;51.514;-0.178;2024-01-10T09:01:17;8.82;;;5.82;;
48524;SDS011;34316;51.514;-0.178;2024-01-10T09:03:19;13.80;;;7.35;;
48524;SDS011;34316;51.514;-0.178;2024-01-10T09:05:21;14.35;;;7.05;;
48524;SDS011;34316;51.514;-0.178;2024-01-10T09:07:23;13.23;;;6.60;;
48524;SDS011;34316;51.514;-0.178;2024-01-10T09:09:25;10.10;;;5.95;;
48524;SDS011;34316;51.514;-0.178;2024-01-10T09:11:27;14.93;;;6.85;;
48524;SDS011;34316;51.514;-0.178;2024-01-10T09:13:28;19.10;;;6.97;;
48524;SDS011;34316;51.514;-0.178;2024-01-10T09:15:31;15.38;;;7.18;;
48524;SDS011;34316;51.514;-0.178;2024-01-10T09:17:32;8.98;;;6.38;;
48524;SDS011;34316;51.514;-0.178;2024-01-10T09:19:34;11.38;;;6.68;;
48524;SDS011;34316;51.514;-0.178;2024-01-10T09:21:36;14.32;;;7.15;;
48524;SDS011;34316;51.514;-0.178;2024-01-10T09:23:38;10.75;;;5.80;;
48524;SDS011;34316;51.514;-0.178;2024-01-10T09:25:40;11.32;;;6.07;;
48524;SDS011;34316;51.514;-0.178;2024-01-10T09:27:42;10.13;;;6.38;;
48524;SDS011;34316;51.514;-0.178;2024-01-10T09:29:48;9.95;;;5.80;;
48524;SDS011;34316;51.514;-0.178;2024-01-10T09:31:50;9.80;;;5.88;;
48524;SDS011;34316;51.514;-0.178;2024-01-10T09:33:52;11.80;;;6.35;;
48524;SDS011;34316;51.514;-0.178;2024-01-10T09:35:54;10.57;;;7.15;;
48524;SDS011;34316;51.514;-0.178;2024-01-10T09:37:58;11.07;;;7.10;;
48524;SDS011;34316;51.514;-0.178;2024-01-10T09:40:02;11.13;;;7.70;;
48524;SDS011;34316;51.514;-0.178;2024-01-10T09:42:05;18.65;;;10.80;;
48524;SDS011;34316;51.514;-0.178;2024-01-10T09:44:08;13.43;;;9.00;;
48524;SDS011;34316;51.514;-0.178;2024-01-10T09:46:11;16.63;;;11.07;;
48524;SDS011;34316;51.514;-0.178;2024-01-10T09:48:13;16.45;;;10.40;;
48524;SDS011;34316;51.514;-0.178;2024-01-10T09:50:17;16.17;;;10.23;;
48524;SDS011;34316;51.514;-0.178;2024-01-10T09:52:25;14.25;;;9.73;;
48524;SDS011;34316;51.514;-0.178;2024-01-10T09:54:29;14.60;;;9.73;;
48524;SDS011;34316;51.514;-0.178;2024-01-10T09:56:32;19.10;;;9.77;;
48524;SDS011;34316;51.514;-0.178;2024-01-10T09:58:34;13.45;;;8.85;;
48524;SDS011;34316;51.514;-0.178;2024-01-10T10:00:40;14.88;;;8.32;;
48524;SDS011;34316;51.514;-0.178;2024-01-10T10:02:43;11.00;;;7.75;;
48524;SDS011;34316;51.514;-0.178;2024-01-10T10:05:03;13.77;;;8.60;;
48524;SDS011;34316;51.514;-0.178;2024-01-10T10:07:11;15.07;;;8.48;;
48524;SDS011;34316;51.514;-0.178;2024-01-10T10:09:13;14.98;;;9.02;;
48524;SDS011;34316;51.514;-0.178;2024-01-10T10:11:15;16.35;;;9.27;;
48524;SDS011;34316;51.514;-0.178;2024-01-10T10:13:27;18.17;;;10.07;;
48524;SDS011;34316;51.514;-0.178;2024-01-10T10:15:30;19.20;;;10.63;;
48524;SDS011;34316;51.514;-0.178;2024-01-10T10:17:33;15.02;;;9.25;;
48524;SDS011;34316;51.514;-0.178;2024-01-10T10:19:35;21.23;;;11.15;;
48524;SDS011;34316;51.514;-0.178;2024-01-10T10:21:41;13.25;;;8.82;;
48524;SDS011;34316;51.514;-0.178;2024-01-10T10:23:56;14.63;;;9.48;;
48524;SDS011;34316;51.514;-0.178;2024-01-10T10:26:02;13.63;;;8.95;;
48524;SDS011;34316;51.514;-0.178;2024-01-10T10:28:12;12.75;;;8.00;;
48524;SDS011;34316;51.514;-0.178;2024-01-10T10:30:33;16.73;;;8.98;;
48524;SDS011;34316;51.514;-0.178;2024-01-10T10:32:35;13.45;;;8.73;;
48524;SDS011;34316;51.514;-0.178;2024-01-10T10:34:37;16.23;;;8.57;;
48524;SDS011;34316;51.514;-0.178;2024-01-10T10:36:39;11.73;;;7.90;;
48524;SDS011;34316;51.514;-0.178;2024-01-10T10:38:46;15.20;;;9.15;;
48524;SDS011;34316;51.514;-0.178;2024-01-10T10:40:48;14.50;;;9.05;;
48524;SDS011;34316;51.514;-0.178;2024-01-10T10:42:57;16.23;;;10.57;;
48524;SDS011;34316;51.514;-0.178;2024-01-10T10:45:01;17.35;;;10.68;;
48524;SDS011;34316;51.514;-0.178;2024-01-10T10:47:05;20.38;;;9.82;;
48524;SDS011;34316;51.514;-0.178;2024-01-10T10:49:13;15.63;;;8.73;;
48524;SDS011;34316;51.514;-0.178;2024-01-10T10:51:17;14.00;;;8.55;;
48524;SDS011;34316;51.514;-0.178;2024-01-10T10:53:22;18.80;;;8.73;;
48524;SDS011;34316;51.514;-0.178;2024-01-10T10:55:26;12.10;;;8.48;;
48524;SDS011;34316;51.514;-0.178;2024-01-10T10:57:30;14.38;;;8.20;;
48524;SDS011;34316;51.514;-0.178;2024-01-10T10:59:32;15.05;;;8.60;;
48524;SDS011;34316;51.514;-0.178;2024-01-10T11:01:36;15.38;;;8.55;;
48524;SDS011;34316;51.514;-0.178;2024-01-10T11:03:39;17.25;;;7.85;;
48524;SDS011;34316;51.514;-0.178;2024-01-10T11:05:42;18.20;;;8.57;;
48524;SDS011;34316;51.514;-0.178;2024-01-10T11:07:44;13.05;;;8.13;;
48524;SDS011;34316;51.514;-0.178;2024-01-10T11:09:46;13.18;;;7.65;;
48524;SDS011;34316;51.514;-0.178;2024-01-10T11:11:53;12.27;;;7.10;;
48524;SDS011;34316;51.514;-0.178;2024-01-10T11:25:40;12.30;;;7.75;;
48524;SDS011;34316;51.514;-0.178;2024-01-10T11:27:42;14.18;;;8.02;;
48524;SDS011;34316;51.514;-0.178;2024-01-10T11:29:45;11.48;;;8.27;;
48524;SDS011;34316;51.514;-0.178;2024-01-10T11:31:50;11.43;;;8.13;;
48524;SDS011;34316;51.514;-0.178;2024-01-10T11:33:52;13.98;;;7.85;;
48524;SDS011;34316;51.514;-0.178;2024-01-10T11:38:19;11.93;;;7.43;;
48524;SDS011;34316;51.514;-0.178;2024-01-10T11:42:51;11.45;;;7.90;;
48524;SDS011;34316;51.514;-0.178;2024-01-10T11:44:53;15.48;;;8.43;;
48524;SDS011;34316;51.514;-0.178;2024-01-10T11:46:55;15.65;;;8.27;;
48524;SDS011;34316;51.514;-0.178;2024-01-10T11:48:58;16.35;;;9.20;;
48524;SDS011;34316;51.514;-0.178;2024-01-10T11:51:00;12.90;;;8.45;;
48524;SDS011;34316;51.514;-0.178;2024-01-10T11:53:04;13.93;;;9.18;;
48524;SDS011;34316;51.514;-0.178;2024-01-10T11:55:06;17.35;;;10.88;;
48524;SDS011;34316;51.514;-0.178;2024-01-10T11:59:24;25.05;;;11.77;;
48524;SDS011;34316;51.514;-0.178;2024-01-10T12:01:26;23.10;;;11.93;;
48524;SDS011;34316;51.514;-0.178;2024-01-10T12:03:29;20.27;;;11.70;;
48524;SDS011;34316;51.514;-0.178;2024-01-10T12:07:35;17.35;;;11.32;;
48524;SDS011;34316;51.514;-0.178;2024-01-10T12:09:38;20.67;;;11.82;;
48524;SDS011;34316;51.514;-0.178;2024-01-10T12:11:40;20.48;;;13.07;;
48524;SDS011;34316;51.514;-0.178;2024-01-10T12:13:45;20.65;;;11.52;;
48524;SDS011;34316;51.514;-0.178;2024-01-10T12:15:47;23.25;;;12.52;;
48524;SDS011;34316;51.514;-0.178;2024-01-10T12:17:49;19.52;;;11.82;;
48524;SDS011;34316;51.514;-0.178;2024-01-10T12:19:53;21.90;;;12.00;;
48524;SDS011;34316;51.514;-0.178;2024-01-10T12:21:55;21.52;;;13.13;;
48524;SDS011;34316;51.514;-0.178;2024-01-10T12:23:58;24.80;;;12.38;;
48524;SDS011;34316;51.514;-0.178;2024-01-10T12:26:03;18.38;;;11.98;;